createdAt,value
2023-02-23T00:01:16.192Z,5.40
2023-02-23T00:05:19.867Z,5.18
2023-02-23T00:09:26.203Z,5.53
2023-02-23T00:13:29.928Z,5.43
2023-02-23T00:17:36.711Z,5.43
2023-02-23T00:21:40.213Z,5.20
2023-02-23T00:25:46.327Z,5.28
2023-02-23T00:29:51.003Z,5.40
2023-02-23T00:33:57.022Z,5.63
2023-02-23T00:38:00.234Z,5.30
2023-02-23T00:42:03.784Z,5.47
2023-02-23T00:46:07.609Z,5.35
2023-02-23T00:50:14.955Z,5.25
2023-02-23T00:54:18.414Z,5.13
2023-02-23T00:58:21.452Z,5.38
2023-02-23T01:02:25.163Z,4.88
2023-02-23T01:06:29.698Z,5.25
2023-02-23T01:10:34.139Z,5.15
2023-02-23T01:14:38.184Z,4.60
2023-02-23T01:18:42.795Z,5.22
2023-02-23T01:22:49.161Z,5.00
2023-02-23T01:26:52.347Z,5.13
2023-02-23T01:30:56.487Z,5.07
2023-02-23T01:34:59.592Z,5.30
2023-02-23T01:39:07.620Z,5.28
2023-02-23T01:43:15.815Z,4.80
2023-02-23T01:47:20.569Z,5.45
2023-02-23T01:51:26.813Z,6.03
2023-02-23T01:55:31.624Z,5.85
2023-02-23T01:59:41.146Z,5.65
2023-02-23T02:03:48.333Z,4.80
2023-02-23T02:07:59.087Z,5.30
2023-02-23T02:12:08.425Z,5.22
2023-02-23T02:16:49.907Z,4.93
2023-02-23T02:21:40.596Z,5.32
2023-02-23T02:25:55.394Z,4.90
2023-02-23T02:30:35.403Z,5.15
2023-02-23T02:35:09.501Z,4.82
2023-02-23T02:39:24.125Z,4.93
2023-02-23T02:43:38.521Z,4.50
2023-02-23T02:47:50.419Z,5.25
2023-02-23T02:52:00.027Z,4.70
2023-02-23T02:56:06.469Z,5.07
2023-02-23T03:00:37.187Z,4.28
2023-02-23T03:04:58.024Z,4.80
2023-02-23T03:09:26.659Z,4.22
2023-02-23T03:14:01.978Z,4.97
2023-02-23T03:18:35.760Z,5.40
2023-02-23T03:23:05.200Z,5.13
2023-02-23T03:27:38.069Z,4.55
2023-02-23T03:32:07.182Z,5.63
2023-02-23T03:36:36.266Z,4.07
2023-02-23T03:41:02.315Z,4.55
2023-02-23T03:45:26.997Z,5.50
2023-02-23T03:49:53.271Z,5.07
2023-02-23T03:54:20.595Z,4.88
2023-02-23T03:58:47.322Z,4.63
2023-02-23T04:03:10.193Z,5.18
2023-02-23T04:07:35.406Z,4.75
2023-02-23T04:12:01.533Z,4.30
2023-02-23T04:16:06.592Z,5.20
2023-02-23T04:20:12.327Z,5.05
2023-02-23T04:24:16.667Z,5.28
2023-02-23T04:28:20.033Z,5.40
2023-02-23T04:32:23.153Z,5.93
2023-02-23T04:36:26.926Z,5.00
2023-02-23T04:40:31.772Z,5.10
2023-02-23T04:44:35.054Z,5.00
2023-02-23T04:48:38.049Z,5.25
2023-02-23T04:52:41.158Z,5.10
2023-02-23T04:56:45.510Z,5.03
2023-02-23T05:00:48.633Z,5.13
2023-02-23T05:04:51.730Z,5.05
2023-02-23T05:08:54.879Z,5.05
2023-02-23T05:13:01.141Z,4.88
2023-02-23T05:17:04.495Z,5.13
2023-02-23T05:21:09.624Z,4.80
2023-02-23T05:25:13.064Z,5.88
2023-02-23T05:29:17.673Z,6.10
2023-02-23T05:33:21.944Z,4.93
2023-02-23T05:37:24.919Z,5.63
2023-02-23T05:41:27.965Z,6.15
2023-02-23T05:45:33.271Z,6.18
2023-02-23T05:49:36.332Z,4.97
2023-02-23T05:53:39.924Z,4.95
2023-02-23T05:57:43.942Z,5.35
2023-02-23T06:01:48.301Z,6.22
2023-02-23T06:05:52.307Z,5.88
2023-02-23T06:09:55.431Z,5.68
2023-02-23T06:14:00.515Z,5.95
2023-02-23T06:18:05.317Z,5.88
2023-02-23T06:22:08.438Z,6.28
2023-02-23T06:26:11.417Z,6.78
2023-02-23T06:30:15.345Z,7.18
2023-02-23T06:34:19.972Z,6.80
2023-02-23T06:38:24.003Z,7.10
2023-02-23T06:42:27.193Z,7.28
2023-02-23T06:46:30.479Z,7.03
2023-02-23T06:50:34.888Z,7.38
2023-02-23T06:54:40.097Z,7.47
2023-02-23T06:58:43.466Z,6.93
2023-02-23T07:02:46.592Z,7.30
2023-02-23T07:06:50.977Z,7.88
2023-02-23T07:10:54.145Z,8.35
2023-02-23T07:14:57.113Z,7.93
2023-02-23T07:19:00.412Z,7.78
2023-02-23T07:23:04.810Z,8.50
2023-02-23T07:27:08.094Z,7.65
2023-02-23T07:31:11.160Z,7.93
2023-02-23T07:35:14.216Z,8.55
2023-02-23T07:39:18.572Z,8.50
2023-02-23T07:43:22.841Z,8.25
2023-02-23T07:47:32.538Z,9.48
2023-02-23T07:51:35.671Z,8.60
2023-02-23T07:55:40.282Z,8.75
2023-02-23T07:59:43.617Z,9.23
2023-02-23T08:03:49.638Z,9.23
2023-02-23T08:07:52.771Z,9.27
2023-02-23T08:11:57.102Z,9.90
2023-02-23T08:16:00.328Z,9.65
2023-02-23T08:20:03.895Z,9.52
2023-02-23T08:24:07.971Z,8.40
2023-02-23T08:28:13.161Z,8.02
2023-02-23T08:32:16.247Z,7.55
2023-02-23T08:36:20.756Z,7.95
2023-02-23T08:40:23.853Z,7.47
2023-02-23T08:44:28.571Z,8.07
2023-02-23T08:48:31.811Z,8.02
2023-02-23T08:52:35.141Z,7.32
2023-02-23T08:56:38.382Z,6.63
2023-02-23T09:00:42.729Z,6.97
2023-02-23T09:04:45.943Z,7.63
2023-02-23T09:08:49.677Z,7.60
2023-02-23T09:12:53.014Z,7.47
2023-02-23T09:16:57.359Z,7.72
2023-02-23T09:21:00.683Z,7.82
2023-02-23T09:25:03.720Z,7.75
2023-02-23T09:29:08.408Z,7.68
2023-02-23T09:33:12.988Z,7.32
2023-02-23T09:37:16.670Z,8.10
2023-02-23T09:41:54.623Z,7.63
2023-02-23T09:46:05.282Z,8.18
2023-02-23T09:50:17.806Z,6.88
2023-02-23T09:54:24.241Z,7.28
2023-02-23T09:58:29.797Z,7.47
2023-02-23T10:02:39.840Z,7.63
2023-02-23T10:06:49.840Z,7.53
2023-02-23T10:11:00.947Z,7.40
2023-02-23T10:15:16.656Z,7.50
2023-02-23T10:19:27.329Z,7.60
2023-02-23T10:23:38.788Z,7.45
2023-02-23T10:27:45.202Z,7.60
2023-02-23T10:31:52.315Z,7.78
2023-02-23T10:36:13.026Z,7.50
2023-02-23T10:40:21.509Z,7.88
2023-02-23T10:44:27.513Z,8.40
2023-02-23T10:48:35.109Z,7.68
2023-02-23T10:52:43.104Z,8.18
2023-02-23T10:56:48.246Z,7.88
2023-02-23T11:00:56.901Z,8.52
2023-02-23T11:05:02.289Z,7.40
2023-02-23T11:09:33.105Z,8.48
2023-02-23T11:13:48.904Z,8.02
2023-02-23T11:17:57.500Z,8.20
2023-02-23T11:22:00.959Z,8.27
2023-02-23T11:26:17.208Z,8.38
2023-02-23T11:30:25.351Z,9.20
2023-02-23T11:34:35.363Z,8.90
2023-02-23T11:38:38.455Z,8.93
2023-02-23T11:42:53.545Z,8.90
2023-02-23T11:46:58.852Z,8.93
2023-02-23T11:51:02.716Z,8.45
2023-02-23T11:55:09.092Z,8.60
2023-02-23T11:59:20.505Z,8.18
2023-02-23T12:03:27.048Z,8.65
2023-02-23T12:07:41.642Z,8.40
2023-02-23T12:11:50.258Z,7.63
2023-02-23T12:15:58.926Z,8.25
2023-02-23T12:20:11.061Z,8.30
2023-02-23T12:24:21.064Z,8.63
2023-02-23T12:28:30.146Z,8.40
2023-02-23T12:32:45.298Z,8.82
2023-02-23T12:36:56.872Z,8.00
2023-02-23T12:41:06.242Z,7.97
2023-02-23T12:45:18.989Z,8.40
2023-02-23T12:49:31.208Z,7.55
2023-02-23T12:53:41.868Z,8.77
2023-02-23T12:57:54.763Z,8.35
2023-02-23T13:02:00.836Z,7.90
2023-02-23T13:06:11.923Z,7.85
2023-02-23T13:10:25.947Z,7.70
2023-02-23T13:14:35.121Z,6.68
2023-02-23T13:18:44.430Z,7.57
2023-02-23T13:22:52.258Z,7.35
2023-02-23T13:27:02.294Z,7.00
2023-02-23T13:31:06.337Z,7.20
2023-02-23T13:35:15.758Z,7.32
2023-02-23T13:39:50.093Z,7.32
2023-02-23T13:44:00.383Z,7.05
2023-02-23T13:48:14.943Z,7.43
2023-02-23T13:52:24.886Z,7.25
2023-02-23T13:56:30.863Z,6.82
2023-02-23T14:00:35.337Z,7.50
2023-02-23T14:04:42.483Z,7.03
2023-02-23T14:08:52.850Z,7.05
2023-02-23T14:13:09.283Z,6.57
2023-02-23T14:17:50.558Z,7.00
2023-02-23T14:22:00.846Z,6.05
2023-02-23T14:26:16.495Z,7.00
2023-02-23T14:30:27.188Z,6.85
2023-02-23T14:34:49.473Z,6.65
2023-02-23T14:39:01.712Z,5.85
2023-02-23T14:43:05.126Z,5.47
2023-02-23T14:47:12.873Z,6.20
2023-02-23T14:51:23.513Z,6.18
2023-02-23T14:55:29.595Z,6.18
2023-02-23T14:59:39.654Z,6.13
2023-02-23T15:03:42.809Z,6.28
2023-02-23T15:07:46.807Z,6.07
2023-02-23T15:11:54.185Z,5.35
2023-02-23T15:15:58.768Z,5.93
2023-02-23T15:20:15.805Z,5.53
2023-02-23T15:24:25.829Z,7.00
2023-02-23T15:28:31.334Z,6.43
2023-02-23T15:32:39.550Z,6.72
2023-02-23T15:36:47.143Z,5.90
2023-02-23T15:40:53.626Z,6.97
2023-02-23T15:45:03.157Z,6.45
2023-02-23T15:49:07.441Z,6.80
2023-02-23T15:53:31.808Z,5.68
2023-02-23T15:57:44.176Z,6.75
2023-02-23T16:01:48.852Z,6.55
2023-02-23T16:05:59.849Z,6.97
2023-02-23T16:10:07.146Z,7.40
2023-02-23T16:14:17.810Z,7.22
2023-02-23T16:18:30.137Z,8.43
2023-02-23T16:22:33.456Z,7.25
2023-02-23T16:26:42.470Z,7.65
2023-02-23T16:30:53.653Z,7.00
2023-02-23T16:35:02.470Z,7.80
2023-02-23T16:39:11.987Z,7.03
2023-02-23T16:43:15.089Z,7.45
2023-02-23T16:47:36.419Z,8.45
2023-02-23T16:51:41.617Z,7.22
2023-02-23T16:55:50.207Z,7.25
2023-02-23T16:59:54.807Z,7.43
2023-02-23T17:03:59.115Z,7.15
2023-02-23T17:08:05.003Z,7.32
2023-02-23T17:12:08.394Z,7.40
2023-02-23T17:16:14.266Z,6.70
2023-02-23T17:20:21.727Z,6.88
2023-02-23T17:24:26.295Z,7.05
2023-02-23T17:28:29.317Z,8.15
2023-02-23T17:32:33.110Z,8.13
2023-02-23T17:36:36.133Z,7.18
2023-02-23T17:40:40.846Z,7.50
2023-02-23T17:44:44.561Z,7.60
2023-02-23T17:48:47.883Z,8.07
2023-02-23T17:52:51.944Z,8.00
2023-02-23T17:56:56.858Z,8.10
2023-02-23T18:01:01.899Z,7.80
2023-02-23T18:05:05.682Z,7.85
2023-02-23T18:09:08.954Z,8.20
2023-02-23T18:13:15.337Z,8.43
2023-02-23T18:17:18.391Z,8.35
2023-02-23T18:21:23.203Z,8.70
2023-02-23T18:25:29.077Z,8.38
2023-02-23T18:29:35.852Z,7.97
2023-02-23T18:33:38.864Z,8.32
2023-02-23T18:37:42.050Z,8.60
2023-02-23T18:41:45.568Z,7.95
2023-02-23T18:45:51.103Z,8.20
2023-02-23T18:49:54.097Z,8.55
2023-02-23T18:53:57.221Z,8.30
2023-02-23T18:58:00.368Z,8.45
2023-02-23T19:02:05.274Z,7.93
2023-02-23T19:06:11.604Z,8.30
2023-02-23T19:10:16.581Z,8.18
2023-02-23T19:14:22.098Z,8.75
2023-02-23T19:18:28.395Z,8.93
2023-02-23T19:22:31.387Z,8.15
2023-02-23T19:26:37.341Z,8.68
2023-02-23T19:30:45.025Z,8.63
2023-02-23T19:34:49.688Z,8.18
2023-02-23T19:38:52.692Z,7.85
2023-02-23T19:42:56.151Z,8.02
2023-02-23T19:46:59.161Z,8.27
2023-02-23T19:51:04.264Z,8.05
2023-02-23T19:55:08.430Z,8.77
2023-02-23T19:59:12.201Z,8.20
2023-02-23T20:03:19.855Z,7.75
2023-02-23T20:07:25.483Z,8.82
2023-02-23T20:11:28.620Z,8.07
2023-02-23T20:15:31.778Z,8.48
2023-02-23T20:19:34.767Z,7.95
2023-02-23T20:23:39.413Z,8.23
2023-02-23T20:27:44.125Z,7.85
2023-02-23T20:31:50.736Z,8.52
2023-02-23T20:35:53.974Z,7.63
2023-02-23T20:39:58.463Z,8.85
2023-02-23T20:44:01.868Z,8.95
2023-02-23T20:48:05.056Z,9.18
2023-02-23T20:52:08.094Z,9.07
2023-02-23T20:56:12.679Z,9.10
2023-02-23T21:00:28.779Z,8.32
2023-02-23T21:04:35.385Z,8.70
2023-02-23T21:08:39.942Z,8.82
2023-02-23T21:12:44.445Z,8.43
2023-02-23T21:16:47.450Z,9.77
2023-02-23T21:20:50.551Z,9.90
2023-02-23T21:24:53.587Z,8.50
2023-02-23T21:28:58.361Z,8.90
2023-02-23T21:33:03.831Z,9.25
2023-02-23T21:37:07.345Z,9.60
2023-02-23T21:41:11.703Z,9.25
2023-02-23T21:45:17.308Z,9.32
2023-02-23T21:49:20.833Z,8.75
2023-02-23T21:53:23.910Z,9.00
2023-02-23T21:57:28.286Z,9.43
2023-02-23T22:01:34.731Z,9.95
2023-02-23T22:05:37.757Z,8.20
2023-02-23T22:09:41.389Z,8.45
2023-02-23T22:13:44.701Z,9.57
2023-02-23T22:17:49.133Z,9.82
2023-02-23T22:21:52.420Z,8.35
2023-02-23T22:25:55.869Z,9.27
2023-02-23T22:30:01.538Z,9.75
2023-02-23T22:34:07.360Z,9.68
2023-02-23T22:38:10.382Z,9.88
2023-02-23T22:42:13.447Z,9.55
2023-02-23T22:46:17.700Z,9.90
2023-02-23T22:50:22.442Z,9.68
2023-02-23T22:54:26.547Z,9.45
2023-02-23T22:58:31.617Z,9.02
2023-02-23T23:02:36.264Z,9.75
2023-02-23T23:06:42.790Z,10.20
2023-02-23T23:10:49.358Z,9.45
2023-02-23T23:14:52.531Z,9.20
2023-02-23T23:18:57.590Z,9.38
2023-02-23T23:23:02.668Z,9.48
2023-02-23T23:27:08.243Z,10.02
2023-02-23T23:31:11.498Z,9.40
2023-02-23T23:35:15.343Z,9.00
2023-02-23T23:39:21.815Z,8.35
2023-02-23T23:43:25.358Z,8.35
2023-02-23T23:47:30.450Z,9.05
2023-02-23T23:51:38.803Z,8.35
2023-02-23T23:55:43.280Z,9.90
2023-02-23T23:59:48.675Z,9.73
